Time;durP1;ratioP1;P1;durP2;ratioP2;P2;SDS_P1;SDS_P2;PMS_P1;PMS_P2;Temp;Humidity;BMP_temperature;BMP_pressure;BME280_temperature;BME280_humidity;BME280_pressure;Samples;Min_cycle;Max_cycle;Signal;HPM_P1;HPM_P2
2021/10/15 00:01:30;;;;;;;8.07;6.87;;;;;;;12.80;78.43;100885.34;5075715;28;20637;-82
2021/10/15 00:03:58;;;;;;;8.20;6.90;;;;;;;12.80;78.47;100874.66;5068455;28;20219;-82
2021/10/15 00:06:24;;;;;;;7.43;6.20;;;;;;;12.78;78.49;100872.09;5076041;28;20861;-82
2021/10/15 00:08:51;;;;;;;12.83;7.23;;;;;;;12.79;78.79;100871.13;5076262;28;20227;-82
2021/10/15 00:11:18;;;;;;;8.60;7.57;;;;;;;12.80;78.51;100864.81;5064954;28;20304;-83
2021/10/15 00:13:44;;;;;;;7.83;6.13;;;;;;;12.80;78.35;100864.81;5073142;28;20569;-81
2021/10/15 00:16:11;;;;;;;10.87;7.40;;;;;;;12.83;78.52;100863.75;5068990;28;20201;-82
2021/10/15 00:18:37;;;;;;;7.70;6.90;;;;;;;12.82;78.53;100854.03;5081953;28;20228;-82
2021/10/15 00:21:06;;;;;;;7.90;6.60;;;;;;;12.83;78.48;100855.75;5086666;28;20315;-85
2021/10/15 00:23:32;;;;;;;7.40;6.13;;;;;;;12.82;78.89;100848.69;5061695;28;20259;-84
2021/10/15 00:25:59;;;;;;;8.03;6.30;;;;;;;12.82;78.44;100838.84;5068910;28;20213;-85
2021/10/15 00:28:25;;;;;;;8.57;6.70;;;;;;;12.83;78.49;100839.72;5071432;28;20225;-83
2021/10/15 00:30:52;;;;;;;9.67;6.77;;;;;;;12.82;78.69;100829.97;5070739;28;20206;-85
2021/10/15 00:33:18;;;;;;;9.10;6.57;;;;;;;12.82;78.37;100824.63;5066068;28;20231;-84
2021/10/15 00:35:45;;;;;;;8.33;6.20;;;;;;;12.84;78.35;100825.38;5073776;28;20208;-83
2021/10/15 00:38:13;;;;;;;6.90;6.17;;;;;;;12.81;78.35;100818.44;5069466;28;20226;-84
2021/10/15 00:40:39;;;;;;;8.37;5.80;;;;;;;12.81;78.80;100814.91;5063154;28;20204;-84
2021/10/15 00:43:06;;;;;;;7.87;6.07;;;;;;;12.80;78.72;100803.34;5068415;28;20236;-83
2021/10/15 00:45:33;;;;;;;9.10;6.03;;;;;;;12.80;78.31;100794.47;5070182;28;20201;-83
2021/10/15 00:47:59;;;;;;;9.00;6.27;;;;;;;12.79;78.71;100798.13;5058840;28;20227;-82
2021/10/15 00:50:26;;;;;;;7.60;5.80;;;;;;;12.80;78.45;100794.47;5077449;28;20582;-81
2021/10/15 00:52:53;;;;;;;7.43;6.10;;;;;;;12.81;78.49;100788.16;5073093;28;20205;-81
2021/10/15 00:55:21;;;;;;;7.27;5.83;;;;;;;12.79;78.47;100790.09;5066915;28;20206;-83
2021/10/15 00:57:47;;;;;;;7.33;5.70;;;;;;;12.78;78.18;100773.19;5069315;28;20595;-82
2021/10/15 01:00:14;;;;;;;6.57;5.17;;;;;;;12.76;78.33;100764.44;5075954;28;20274;-83
2021/10/15 01:02:42;;;;;;;6.23;4.63;;;;;;;12.77;78.18;100760.81;5060748;28;20228;-83
2021/10/15 01:05:09;;;;;;;7.10;5.57;;;;;;;12.74;78.10;100768.16;5075191;28;20204;-83
2021/10/15 01:07:37;;;;;;;7.40;5.47;;;;;;;12.73;77.92;100753.97;5079006;28;20201;-82
2021/10/15 01:10:05;;;;;;;7.87;4.83;;;;;;;12.72;77.87;100752.25;5059351;28;20213;-83
2021/10/15 01:12:34;;;;;;;5.93;4.57;;;;;;;12.72;78.10;100751.41;5070900;28;20300;-83
2021/10/15 01:15:01;;;;;;;5.63;4.90;;;;;;;12.74;77.65;100744.97;5080175;28;20202;-83
2021/10/15 01:17:27;;;;;;;6.03;5.17;;;;;;;12.75;77.61;100737.81;5079312;28;20241;-83
2021/10/15 01:19:56;;;;;;;6.83;4.70;;;;;;;12.74;77.89;100739.63;5096305;28;20209;-83
2021/10/15 01:22:27;;;;;;;6.93;4.50;;;;;;;12.73;77.53;100734.41;5077351;28;20220;-83
2021/10/15 01:24:53;;;;;;;8.37;4.80;;;;;;;12.74;77.48;100728.94;5073699;28;20209;-82
2021/10/15 01:27:20;;;;;;;5.90;4.10;;;;;;;12.75;77.11;100722.63;5079064;28;20209;-81
2021/10/15 01:29:47;;;;;;;5.80;4.00;;;;;;;12.75;77.10;100716.44;5083080;28;20231;-80
2021/10/15 01:32:15;;;;;;;5.40;3.90;;;;;;;12.70;77.27;100711.44;5068485;28;20590;-82
2021/10/15 01:34:42;;;;;;;7.57;4.50;;;;;;;12.69;77.17;100722.25;5082145;28;20262;-82
2021/10/15 01:37:10;;;;;;;5.40;4.53;;;;;;;12.70;77.08;100715.94;5081691;28;20213;-82
2021/10/15 01:39:36;;;;;;;6.90;4.43;;;;;;;12.72;76.67;100711.34;5073328;28;20235;-82
2021/10/15 01:42:03;;;;;;;6.43;4.23;;;;;;;12.69;76.92;100717.75;5068511;28;20209;-81
2021/10/15 01:44:30;;;;;;;5.73;4.17;;;;;;;12.69;76.83;100695.50;5082146;28;20225;-81
2021/10/15 01:46:56;;;;;;;5.40;3.77;;;;;;;12.69;76.38;100695.50;5080918;28;20284;-81
2021/10/15 01:49:23;;;;;;;5.50;4.07;;;;;;;12.70;76.42;100702.56;5066927;28;20252;-82
2021/10/15 01:51:49;;;;;;;6.23;4.17;;;;;;;12.68;76.19;100712.50;5079894;28;20204;-83
2021/10/15 01:54:17;;;;;;;5.73;4.13;;;;;;;12.68;76.28;100686.66;5079581;28;20217;-83
2021/10/15 01:56:44;;;;;;;5.97;4.17;;;;;;;12.69;75.87;100685.69;5070100;28;20206;-82
2021/10/15 01:59:10;;;;;;;7.07;3.83;;;;;;;12.67;75.96;100678.75;5068229;28;20225;-81
2021/10/15 02:01:37;;;;;;;5.33;3.97;;;;;;;12.69;75.87;100679.47;5085589;28;20221;-83
2021/10/15 02:04:03;;;;;;;5.83;3.77;;;;;;;12.68;76.17;100677.78;5091514;28;20201;-81
2021/10/15 02:06:30;;;;;;;5.50;3.70;;;;;;;12.65;75.88;100678.84;5077727;28;20297;-82
2021/10/15 02:08:56;;;;;;;5.50;3.97;;;;;;;12.66;75.84;100677.88;5079311;28;20582;-82
2021/10/15 02:11:24;;;;;;;4.03;3.60;;;;;;;12.68;75.58;100683.97;5066204;28;20657;-82
2021/10/15 02:13:51;;;;;;;5.67;4.00;;;;;;;12.66;75.39;100675.22;5079187;28;20273;-82
2021/10/15 02:16:17;;;;;;;5.60;3.97;;;;;;;12.68;75.50;100675.09;5073239;28;20208;-83
2021/10/15 02:18:44;;;;;;;5.73;3.77;;;;;;;12.65;75.14;100667.31;5079245;28;20230;-83
2021/10/15 02:21:11;;;;;;;5.37;4.20;;;;;;;12.66;75.35;100666.34;5068508;28;20666;-83
2021/10/15 02:23:37;;;;;;;6.27;4.33;;;;;;;12.66;75.27;100663.66;5072949;28;20197;-83
2021/10/15 02:26:04;;;;;;;5.43;4.50;;;;;;;12.65;75.27;100657.47;5073966;28;20197;-82
2021/10/15 02:28:32;;;;;;;6.30;4.07;;;;;;;12.66;75.38;100663.66;5076236;28;20221;-82
2021/10/15 02:30:58;;;;;;;8.10;4.80;;;;;;;12.65;75.31;100661.97;5080314;28;20729;-83
2021/10/15 02:33:25;;;;;;;7.47;4.73;;;;;;;12.63;74.95;100659.38;5075967;28;20204;-83
2021/10/15 02:35:51;;;;;;;7.50;4.00;;;;;;;12.64;75.36;100658.44;5068202;28;20210;-84
2021/10/15 02:38:18;;;;;;;7.57;4.27;;;;;;;12.66;74.87;100658.31;5073555;28;20232;-82
2021/10/15 02:40:44;;;;;;;6.67;4.17;;;;;;;12.66;75.10;100650.31;5079310;28;20204;-82
2021/10/15 02:43:11;;;;;;;5.33;4.33;;;;;;;12.63;75.06;100648.69;5073907;28;20715;-82
2021/10/15 02:45:39;;;;;;;6.43;4.63;;;;;;;12.63;75.24;100640.69;5070213;28;20207;-83
2021/10/15 02:48:06;;;;;;;6.17;4.37;;;;;;;12.65;74.89;100644.09;5078758;28;20827;-83
2021/10/15 02:50:32;;;;;;;8.10;4.47;;;;;;;12.64;74.77;100642.41;5078990;28;20204;-82
2021/10/15 02:52:59;;;;;;;6.47;5.13;;;;;;;12.64;74.89;100634.38;5079111;28;20301;-81
2021/10/15 02:55:26;;;;;;;7.30;5.30;;;;;;;12.65;75.01;100630.75;5079086;28;20292;-82
2021/10/15 02:57:52;;;;;;;6.93;5.03;;;;;;;12.63;74.78;100632.66;5078847;28;20317;-81
2021/10/15 03:00:19;;;;;;;6.97;5.17;;;;;;;12.64;74.72;100628.19;5075583;28;20229;-81
2021/10/15 03:02:47;;;;;;;7.63;5.40;;;;;;;12.62;74.56;100630.97;5071226;28;20231;-83
2021/10/15 03:05:14;;;;;;;7.23;5.73;;;;;;;12.62;74.94;100630.97;5078940;28;20205;-81
2021/10/15 03:07:40;;;;;;;6.43;4.83;;;;;;;12.62;74.89;100630.97;5078513;28;20213;-82
2021/10/15 03:10:08;;;;;;;10.17;5.90;;;;;;;12.63;74.78;100615.78;5078397;28;20215;-82
2021/10/15 03:12:35;;;;;;;8.07;5.37;;;;;;;12.62;74.92;100627.44;5064539;28;20212;-83
2021/10/15 03:15:01;;;;;;;8.73;4.93;;;;;;;12.63;74.31;100613.97;5078087;28;20210;-82
2021/10/15 03:17:28;;;;;;;10.47;6.57;;;;;;;12.63;74.60;100613.13;5063355;28;20212;-81
2021/10/15 03:19:56;;;;;;;6.13;5.40;;;;;;;12.60;74.25;100616.84;5078365;28;20231;-82
2021/10/15 03:22:22;;;;;;;7.10;5.10;;;;;;;12.60;74.29;100605.31;5072898;28;20224;-82
2021/10/15 03:24:49;;;;;;;8.40;5.13;;;;;;;12.59;74.23;100600.94;5069626;28;20659;-82
2021/10/15 03:27:16;;;;;;;9.30;5.10;;;;;;;12.59;74.46;100598.25;5074034;28;20205;-80
2021/10/15 03:29:42;;;;;;;6.80;5.00;;;;;;;12.58;74.40;100608.09;5074002;28;20312;-80
2021/10/15 03:32:09;;;;;;;7.07;5.10;;;;;;;12.57;74.33;100601.03;5069503;28;20204;-81
2021/10/15 03:34:35;;;;;;;6.97;5.50;;;;;;;12.58;74.42;100604.56;5079230;28;20207;-81
2021/10/15 03:37:03;;;;;;;8.43;5.27;;;;;;;12.56;74.50;100602.00;5071786;28;20666;-81
2021/10/15 03:39:30;;;;;;;7.93;5.27;;;;;;;12.58;74.07;100593.88;5066489;28;20232;-82
2021/10/15 03:41:57;;;;;;;6.60;5.13;;;;;;;12.56;74.18;100594.00;5078494;28;20255;-82
2021/10/15 03:44:23;;;;;;;6.23;4.80;;;;;;;12.56;74.07;100590.47;5071041;28;20292;-81
2021/10/15 03:46:50;;;;;;;7.60;4.80;;;;;;;12.56;74.35;100596.66;5073629;28;20308;-80
2021/10/15 03:49:16;;;;;;;5.40;4.47;;;;;;;12.55;74.21;100586.09;5064673;28;20235;-81
2021/10/15 03:51:43;;;;;;;7.27;4.83;;;;;;;12.54;74.24;100579.88;5078134;28;20208;-80
2021/10/15 03:54:11;;;;;;;6.57;4.53;;;;;;;12.52;74.02;100581.84;5068269;28;20213;-81
2021/10/15 03:56:37;;;;;;;6.33;4.70;;;;;;;12.52;73.76;100582.69;5057934;28;20209;-81
2021/10/15 03:59:04;;;;;;;7.47;4.17;;;;;;;12.52;73.87;100584.50;5059591;28;20222;-81
2021/10/15 04:01:31;;;;;;;7.63;4.47;;;;;;;12.52;73.89;100584.50;5076002;28;20205;-81
2021/10/15 04:03:57;;;;;;;8.07;4.80;;;;;;;12.50;73.78;100573.94;5083203;28;20221;-81
2021/10/15 04:06:24;;;;;;;5.23;4.23;;;;;;;12.50;73.98;100573.94;5063032;28;20208;-81
2021/10/15 04:08:50;;;;;;;5.27;4.43;;;;;;;12.51;73.81;100572.97;5065152;28;20691;-81
2021/10/15 04:11:18;;;;;;;7.13;4.40;;;;;;;12.50;73.79;100568.59;5061982;28;20224;-81
2021/10/15 04:13:44;;;;;;;7.33;4.87;;;;;;;12.51;73.80;100567.63;5072365;28;20209;-81
2021/10/15 04:16:11;;;;;;;9.30;4.60;;;;;;;12.50;73.62;100565.06;5073355;28;20197;-81
2021/10/15 04:18:38;;;;;;;7.57;4.83;;;;;;;12.50;73.67;100565.06;5065451;28;20238;-80
2021/10/15 04:21:04;;;;;;;7.30;4.93;;;;;;;12.47;73.38;100555.47;5061382;28;20216;-80
2021/10/15 04:23:31;;;;;;;6.47;4.30;;;;;;;12.48;73.32;100564.31;5068680;28;20241;-81
2021/10/15 04:25:57;;;;;;;6.53;4.30;;;;;;;12.45;73.23;100549.38;5070717;28;20209;-81
2021/10/15 04:28:25;;;;;;;6.93;4.73;;;;;;;12.45;73.28;100544.03;5079455;28;20224;-81
2021/10/15 04:30:52;;;;;;;8.77;4.10;;;;;;;12.43;73.31;100539.75;5069923;28;20293;-81
2021/10/15 04:33:18;;;;;;;7.00;4.40;;;;;;;12.43;73.09;100534.41;5078832;28;20646;-80
2021/10/15 04:35:45;;;;;;;7.80;3.87;;;;;;;12.44;73.07;100525.44;5069747;28;20206;-81
2021/10/15 04:38:12;;;;;;;6.17;4.00;;;;;;;12.43;73.14;100534.41;5061817;28;20220;-80
2021/10/15 04:40:38;;;;;;;7.00;4.33;;;;;;;12.44;72.81;100520.09;5079124;28;20211;-81
2021/10/15 04:43:05;;;;;;;8.37;3.80;;;;;;;12.43;72.91;100529.06;5082542;28;20225;-81
2021/10/15 04:45:33;;;;;;;5.57;3.80;;;;;;;12.42;72.43;100522.88;5073936;28;20201;-82
2021/10/15 04:48:00;;;;;;;7.20;4.23;;;;;;;12.40;72.50;100522.13;5073763;28;20221;-81
2021/10/15 04:50:27;;;;;;;7.00;4.20;;;;;;;12.38;72.57;100516.06;5078826;28;20200;-82
2021/10/15 04:52:53;;;;;;;6.97;3.60;;;;;;;12.38;72.38;100513.38;5075564;28;20201;-82
2021/10/15 04:55:20;;;;;;;6.00;3.63;;;;;;;12.36;72.34;100512.63;5071966;28;20242;-80
2021/10/15 04:57:47;;;;;;;6.77;3.93;;;;;;;12.39;72.04;100504.41;5068578;28;20208;-80
2021/10/15 05:00:14;;;;;;;7.67;3.83;;;;;;;12.39;71.88;100507.06;5072512;28;20724;-80
2021/10/15 05:02:42;;;;;;;5.43;3.37;;;;;;;12.37;72.04;100500.13;5069603;28;20221;-81
2021/10/15 05:05:09;;;;;;;6.40;3.50;;;;;;;12.34;72.07;100503.91;5068980;28;20311;-80
2021/10/15 05:07:37;;;;;;;4.87;3.30;;;;;;;12.34;72.15;100500.38;5069663;28;20205;-81
2021/10/15 05:10:04;;;;;;;7.70;3.33;;;;;;;12.35;72.04;100499.41;5075616;28;20209;-81
2021/10/15 05:12:31;;;;;;;3.97;3.00;;;;;;;12.33;71.74;100496.00;5075037;28;20299;-80
2021/10/15 05:14:57;;;;;;;3.80;3.07;;;;;;;12.32;71.47;100479.13;5069652;28;20207;-81
2021/10/15 05:17:24;;;;;;;3.87;2.80;;;;;;;12.31;71.36;100473.91;5072902;28;20205;-81
2021/10/15 05:19:52;;;;;;;6.00;3.07;;;;;;;12.31;71.39;100471.22;5070537;28;20688;-80
2021/10/15 05:22:19;;;;;;;6.57;3.00;;;;;;;12.29;71.28;100468.66;5070042;28;20214;-80
2021/10/15 05:24:45;;;;;;;7.27;3.43;;;;;;;12.28;70.83;100460.75;5066954;28;20199;-81
2021/10/15 05:27:12;;;;;;;5.33;3.57;;;;;;;12.28;71.07;100461.63;5067842;28;20215;-82
2021/10/15 05:29:38;;;;;;;7.53;2.50;;;;;;;12.28;71.12;100466.09;5073702;28;20224;-82
2021/10/15 05:32:05;;;;;;;4.23;3.23;;;;;;;12.27;70.77;100449.22;5075383;28;20293;-82
2021/10/15 05:34:32;;;;;;;5.30;3.17;;;;;;;12.25;70.83;100463.66;5065664;28;20198;-83
2021/10/15 05:37:00;;;;;;;7.20;3.00;;;;;;;12.24;70.66;100448.59;5071062;28;20740;-82
2021/10/15 05:39:26;;;;;;;5.50;2.80;;;;;;;12.23;70.83;100450.41;5076673;28;20593;-84
2021/10/15 05:41:53;;;;;;;6.57;3.03;;;;;;;12.22;70.46;100446.03;5065237;28;20206;-82
2021/10/15 05:44:19;;;;;;;6.23;3.17;;;;;;;12.24;70.78;100443.25;5074903;28;20229;-83
2021/10/15 05:46:46;;;;;;;4.87;3.43;;;;;;;12.23;70.59;100445.06;5071163;28;20211;-83
2021/10/15 05:49:12;;;;;;;5.17;3.20;;;;;;;12.22;70.61;100440.69;5065963;28;20229;-82
2021/10/15 05:51:41;;;;;;;4.30;3.23;;;;;;;12.22;70.83;100429.16;5070922;28;20271;-83
2021/10/15 05:54:14;;;;;;;9.03;3.13;;;;;;;12.21;70.54;100425.63;5058559;28;20210;-82
2021/10/15 05:57:01;;;;;;;4.33;3.17;;;;;;;12.22;70.75;100430.00;5070155;28;20217;-83
2021/10/15 05:59:26;;;;;;;5.53;3.17;;;;;;;12.26;70.34;100420.81;5075258;28;20271;-82
2021/10/15 06:01:56;;;;;;;3.53;2.73;;;;;;;12.26;70.39;100418.16;5074913;28;20205;-82
2021/10/15 06:15:33;;;;;;;5.07;3.20;;;;;;;12.26;71.06;100403.94;5071656;28;20201;-83
2021/10/15 06:18:09;;;;;;;5.93;3.30;;;;;;;12.26;71.16;100410.16;5059216;28;20225;-83
2021/10/15 06:20:36;;;;;;;5.60;3.20;;;;;;;12.26;71.08;100399.47;5062799;28;20291;-83
2021/10/15 06:23:02;;;;;;;7.17;3.20;;;;;;;12.29;70.92;100406.41;5079691;28;20224;-82
2021/10/15 06:25:30;;;;;;;6.73;3.50;;;;;;;12.28;71.19;100404.69;5078118;28;20737;-82
2021/10/15 06:27:59;;;;;;;4.33;2.90;;;;;;;12.29;71.04;100403.72;5079192;28;20590;-83
2021/10/15 06:30:26;;;;;;;6.07;3.03;;;;;;;12.27;71.05;100406.50;5071343;28;20225;-82
2021/10/15 06:32:53;;;;;;;6.47;3.23;;;;;;;12.27;71.33;100398.50;5070700;28;20197;-84
2021/10/15 06:35:20;;;;;;;6.90;3.03;;;;;;;12.27;71.36;100405.66;5072778;28;20201;-83
2021/10/15 06:37:46;;;;;;;5.63;3.10;;;;;;;12.26;71.08;100403.94;5073345;28;20707;-84
2021/10/15 06:40:13;;;;;;;5.23;3.40;;;;;;;12.26;71.22;100404.81;5064421;28;20585;-83
2021/10/15 06:42:41;;;;;;;6.23;3.17;;;;;;;12.26;71.22;100391.44;5065431;28;20205;-82
2021/10/15 06:45:08;;;;;;;5.10;3.87;;;;;;;12.26;71.43;100388.78;5068657;28;20202;-82
2021/10/15 06:47:35;;;;;;;8.53;3.43;;;;;;;12.28;71.26;100381.50;5068240;28;20585;-82
2021/10/15 06:50:02;;;;;;;6.70;3.93;;;;;;;12.31;71.37;100375.94;5069733;28;20205;-82
2021/10/15 06:52:30;;;;;;;7.70;4.23;;;;;;;12.28;71.71;100365.50;5059277;28;20580;-82
2021/10/15 06:54:57;;;;;;;7.07;3.50;;;;;;;12.28;71.39;100364.63;5070266;28;20201;-82
2021/10/15 06:57:23;;;;;;;8.20;3.50;;;;;;;12.30;71.68;100376.91;5066066;28;20207;-82
2021/10/15 06:59:51;;;;;;;6.17;3.80;;;;;;;12.32;71.63;100388.34;5070986;28;20226;-82
2021/10/15 07:02:17;;;;;;;5.97;3.63;;;;;;;12.35;71.71;100398.78;5065394;28;20634;-82
2021/10/15 07:04:44;;;;;;;6.57;3.80;;;;;;;12.36;71.91;100410.34;5069337;28;20228;-82
2021/10/15 07:07:10;;;;;;;6.83;3.90;;;;;;;12.36;71.65;100413.81;5067369;28;20217;-81
2021/10/15 07:09:37;;;;;;;5.13;3.63;;;;;;;12.40;71.73;100425.13;5070344;28;20235;-83
2021/10/15 07:12:04;;;;;;;6.47;3.10;;;;;;;12.43;71.81;100423.09;5068316;28;20224;-82
2021/10/15 07:14:30;;;;;;;7.53;3.97;;;;;;;12.45;71.72;100425.66;5067750;28;20224;-82
2021/10/15 07:16:58;;;;;;;7.50;4.03;;;;;;;12.47;71.64;100432.59;5067441;28;20218;-83
2021/10/15 07:19:25;;;;;;;7.60;4.17;;;;;;;12.48;71.76;100428.94;5066315;28;20229;-83
2021/10/15 07:21:51;;;;;;;4.40;4.00;;;;;;;12.51;71.62;100431.41;5072415;28;20216;-82
2021/10/15 07:24:18;;;;;;;6.90;3.97;;;;;;;12.51;71.91;100428.72;5066051;28;20222;-83
2021/10/15 07:26:44;;;;;;;8.50;4.00;;;;;;;12.52;72.01;100433.09;5067873;28;20209;-83
2021/10/15 07:29:11;;;;;;;5.03;3.80;;;;;;;12.54;71.91;100437.47;5068398;28;20699;-83
2021/10/15 07:31:37;;;;;;;6.97;4.17;;;;;;;12.57;71.73;100430.06;5060537;28;20201;-82
2021/10/15 07:34:08;;;;;;;5.93;4.07;;;;;;;12.60;72.03;100445.03;5068326;28;20195;-83
2021/10/15 07:36:37;;;;;;;7.90;4.07;;;;;;;12.61;71.89;100436.88;5062002;28;20226;-83
2021/10/15 07:39:04;;;;;;;5.97;4.03;;;;;;;12.63;71.91;100434.97;5066093;28;20264;-81
2021/10/15 07:41:31;;;;;;;7.87;3.90;;;;;;;12.61;72.00;100423.53;5061312;28;20207;-82
2021/10/15 07:43:57;;;;;;;5.67;4.00;;;;;;;12.63;71.87;100428.75;5065955;28;20580;-83
2021/10/15 07:46:24;;;;;;;6.57;4.43;;;;;;;12.63;71.53;100423.41;5060257;28;20221;-82
2021/10/15 07:48:50;;;;;;;8.83;4.27;;;;;;;12.62;71.71;100432.41;5064674;28;20234;-81
2021/10/15 07:51:18;;;;;;;5.63;3.67;;;;;;;12.60;71.85;100415.63;5063703;28;20288;-81
2021/10/15 07:53:45;;;;;;;8.27;4.03;;;;;;;12.61;71.87;100409.31;5071260;28;20203;-81
2021/10/15 07:56:11;;;;;;;6.03;3.90;;;;;;;12.64;71.77;100411.75;5067984;28;20209;-81
2021/10/15 07:58:38;;;;;;;8.80;4.17;;;;;;;12.64;71.74;100414.44;5063885;28;20231;-82
2021/10/15 08:01:04;;;;;;;8.70;4.20;;;;;;;12.64;72.23;100409.09;5063566;28;20198;-81
2021/10/15 08:03:31;;;;;;;8.23;3.97;;;;;;;12.61;72.10;100403.97;5071583;28;20234;-82
2021/10/15 08:05:57;;;;;;;8.70;4.10;;;;;;;12.62;72.49;100390.50;5075247;28;20202;-82
2021/10/15 08:08:25;;;;;;;6.27;4.17;;;;;;;12.62;72.41;100400.34;5068969;28;20225;-80
2021/10/15 08:10:52;;;;;;;7.90;4.60;;;;;;;12.61;72.73;100396.81;5065524;28;20577;-81
2021/10/15 08:13:18;;;;;;;6.23;3.63;;;;;;;12.62;73.06;100400.34;5064573;28;20270;-81
2021/10/15 08:15:45;;;;;;;6.10;3.90;;;;;;;12.60;72.81;100392.44;5067388;28;20205;-82
2021/10/15 08:18:12;;;;;;;5.77;4.00;;;;;;;12.61;73.01;100406.66;5069109;28;20217;-82
2021/10/15 08:20:38;;;;;;;4.37;3.43;;;;;;;12.64;73.16;100390.41;5089688;28;20205;-81
2021/10/15 08:23:05;;;;;;;6.33;3.47;;;;;;;12.67;73.00;100379.47;5068252;28;20605;-80
2021/10/15 08:25:33;;;;;;;8.60;4.40;;;;;;;12.69;73.12;100382.88;5074079;28;20572;-80
2021/10/15 08:28:00;;;;;;;9.80;4.67;;;;;;;12.71;73.45;100394.31;5071439;28;20224;-82
2021/10/15 08:30:28;;;;;;;6.33;4.03;;;;;;;12.73;73.14;100403.03;5074386;28;20208;-82
2021/10/15 08:32:55;;;;;;;6.70;4.77;;;;;;;12.74;73.14;100410.09;5065075;28;20205;-81
2021/10/15 08:35:23;;;;;;;6.90;4.97;;;;;;;12.74;73.02;100399.41;5057259;28;20211;-82
2021/10/15 08:37:49;;;;;;;4.47;3.47;;;;;;;12.77;72.87;100404.50;5067279;28;20241;-82
2021/10/15 08:40:16;;;;;;;6.50;3.77;;;;;;;12.80;72.87;100414.97;5071195;28;20296;-82
2021/10/15 08:42:50;;;;;;;7.43;4.53;;;;;;;12.79;72.54;100438.19;5078045;28;20196;-81
2021/10/15 08:45:17;;;;;;;7.80;4.60;;;;;;;12.80;72.59;100444.38;5059922;28;20609;-82
2021/10/15 08:47:43;;;;;;;5.60;3.73;;;;;;;12.81;72.85;100454.94;5069213;28;20213;-82
2021/10/15 08:50:10;;;;;;;5.70;4.00;;;;;;;12.81;73.15;100457.63;5059670;28;20201;-81
2021/10/15 08:52:37;;;;;;;10.67;5.20;;;;;;;12.82;72.97;100469.16;5066712;28;20200;-80
2021/10/15 08:55:03;;;;;;;6.57;4.90;;;;;;;12.82;73.65;100458.47;5072202;28;20755;-80
2021/10/15 08:57:30;;;;;;;6.43;5.60;;;;;;;12.81;74.46;100462.13;5073296;28;20197;-81
2021/10/15 08:59:58;;;;;;;8.20;6.23;;;;;;;12.80;74.97;100465.75;5078347;28;20225;-82
2021/10/15 09:02:24;;;;;;;9.80;6.37;;;;;;;12.80;75.48;100471.09;5077026;28;20308;-81
2021/10/15 09:04:54;;;;;;;8.80;6.87;;;;;;;12.75;76.46;100466.09;5077506;28;20232;-82
2021/10/15 09:07:22;;;;;;;10.50;6.93;;;;;;;12.73;76.94;100473.38;5076781;28;20280;-83
2021/10/15 09:09:51;;;;;;;11.07;7.67;;;;;;;12.67;77.59;100479.19;5058032;28;20244;-83
2021/10/15 09:12:20;;;;;;;9.20;8.23;;;;;;;12.62;78.21;100486.69;5063315;28;20214;-83
2021/10/15 09:14:48;;;;;;;9.30;7.53;;;;;;;12.56;78.73;100494.28;5066530;28;20615;-84
2021/10/15 09:17:20;;;;;;;12.53;8.07;;;;;;;12.50;78.71;100493.81;5071370;28;20216;-83
2021/10/15 09:19:48;;;;;;;8.67;7.37;;;;;;;12.45;79.38;100493.28;5067516;28;20236;-83
2021/10/15 09:22:22;;;;;;;9.97;7.77;;;;;;;12.34;80.17;100495.91;5076152;28;20233;-82
2021/10/15 09:24:52;;;;;;;7.70;6.60;;;;;;;12.28;80.26;100507.00;5070840;28;20301;-84
2021/10/15 09:27:29;;;;;;;8.77;7.17;;;;;;;12.23;80.49;100519.84;5072302;28;20205;-84
2021/10/15 09:29:58;;;;;;;9.37;8.40;;;;;;;12.19;81.16;100550.38;5060831;28;20721;-83
2021/10/15 09:32:28;;;;;;;9.20;8.30;;;;;;;12.13;81.40;100586.41;5059332;28;20220;-84
2021/10/15 09:34:56;;;;;;;5.73;3.73;;;;;;;12.04;81.39;100575.50;5059026;28;20186;-84
2021/10/15 09:37:25;;;;;;;3.20;2.70;;;;;;;11.93;81.17;100581.59;5058663;28;20208;-85
2021/10/15 09:40:01;;;;;;;3.40;2.00;;;;;;;11.79;80.84;100577.25;5058825;28;20225;-84
2021/10/15 09:42:30;;;;;;;4.40;2.10;;;;;;;11.73;81.34;100579.44;5059270;28;20692;-85
2021/10/15 09:45:03;;;;;;;2.33;1.90;;;;;;;11.69;81.41;100578.78;5064828;28;20223;-84
2021/10/15 09:47:33;;;;;;;1.50;1.40;;;;;;;11.66;81.04;100597.66;5079412;28;20188;-84
2021/10/15 09:50:02;;;;;;;2.17;1.50;;;;;;;11.63;81.20;100597.06;5079577;28;20206;-84
2021/10/15 09:52:33;;;;;;;2.50;1.30;;;;;;;11.62;81.62;100600.69;5079228;28;20206;-84
2021/10/15 09:55:03;;;;;;;1.50;1.20;;;;;;;11.60;81.82;100610.59;5090066;28;20251;-84
2021/10/15 09:57:36;;;;;;;1.83;1.10;;;;;;;11.60;81.86;100619.44;5078708;28;20201;-84
2021/10/15 10:00:07;;;;;;;1.73;1.10;;;;;;;11.59;81.88;100617.75;5075809;28;20201;-82
2021/10/15 10:02:37;;;;;;;1.17;0.90;;;;;;;11.59;82.25;100631.06;5064570;28;20204;-82
2021/10/15 10:05:05;;;;;;;1.20;1.00;;;;;;;11.59;82.29;100636.41;5071957;28;20234;-83
2021/10/15 10:07:37;;;;;;;1.50;0.77;;;;;;;11.58;82.22;100640.03;5066984;28;20292;-85
2021/10/15 10:10:06;;;;;;;1.53;0.50;;;;;;;11.57;82.49;100641.00;5074563;28;20579;-86
2021/10/15 10:12:36;;;;;;;2.37;0.80;;;;;;;11.59;82.60;100648.88;5076319;28;20295;-84
2021/10/15 10:15:04;;;;;;;1.37;0.60;;;;;;;11.59;82.45;100652.41;5077751;28;20255;-85
2021/10/15 10:17:32;;;;;;;0.50;0.40;;;;;;;11.56;82.29;100646.44;5070649;28;20209;-85
2021/10/15 10:20:07;;;;;;;1.23;0.50;;;;;;;11.53;82.38;100654.63;5072664;28;20233;-83
2021/10/15 10:22:34;;;;;;;1.03;0.50;;;;;;;11.50;82.30;100650.34;5066898;28;20643;-84
2021/10/15 10:25:02;;;;;;;1.03;0.50;;;;;;;11.52;82.01;100664.44;5063416;28;20280;-83
2021/10/15 10:27:31;;;;;;;1.97;0.60;;;;;;;11.52;82.50;100661.78;5065972;28;20207;-84
2021/10/15 10:29:58;;;;;;;0.67;0.50;;;;;;;11.51;82.28;100656.53;5077174;28;20323;-85
2021/10/15 10:32:26;;;;;;;2.53;0.70;;;;;;;11.51;82.59;100675.22;5072106;28;20204;-86
2021/10/15 10:34:54;;;;;;;2.20;1.07;;;;;;;11.50;82.78;100669.03;5064729;28;20640;-84
2021/10/15 10:37:33;;;;;;;7.27;4.23;;;;;;;11.51;82.43;100670.72;5072126;28;20719;-83
2021/10/15 10:40:09;;;;;;;6.43;2.63;;;;;;;11.54;82.72;100670.53;5077692;28;20206;-85
2021/10/15 10:43:05;;;;;;;2.37;1.23;;;;;;;11.51;82.66;100684.06;5071422;28;20392;-85
2021/10/15 10:45:33;;;;;;;1.53;0.90;;;;;;;11.51;82.87;100699.22;5071989;28;20231;-84
2021/10/15 10:48:05;;;;;;;0.57;0.50;;;;;;;11.48;82.62;100694.94;5075775;28;20241;-84
2021/10/15 10:50:34;;;;;;;1.00;0.50;;;;;;;11.45;82.48;100681.81;5081733;28;20210;-85
2021/10/15 10:53:08;;;;;;;1.43;0.70;;;;;;;11.40;82.13;100682.13;5076882;28;20210;-85
2021/10/15 10:55:41;;;;;;;2.23;0.47;;;;;;;11.36;82.01;100690.41;5075812;28;20210;-86
2021/10/15 10:58:41;;;;;;;1.07;0.80;;;;;;;11.34;82.04;100687.00;5074535;28;20228;-84
2021/10/15 11:01:28;;;;;;;1.63;1.00;;;;;;;11.34;81.83;100703.00;5061289;28;20247;-85
2021/10/15 11:03:56;;;;;;;0.93;0.70;;;;;;;11.32;82.35;100707.56;5076048;28;20268;-85
2021/10/15 11:06:24;;;;;;;1.00;0.80;;;;;;;11.30;81.87;100696.16;5097620;28;20297;-85
2021/10/15 11:08:52;;;;;;;1.10;0.80;;;;;;;11.27;81.77;100709.69;5074750;28;20234;-85
2021/10/15 11:11:40;;;;;;;1.60;0.80;;;;;;;11.27;81.59;100725.69;5077772;28;20677;-85
2021/10/15 11:14:08;;;;;;;2.23;1.23;;;;;;;11.25;81.57;100724.94;5088779;28;20665;-84
2021/10/15 11:16:35;;;;;;;1.63;0.80;;;;;;;11.25;81.56;100739.13;5068085;28;20205;-83
2021/10/15 11:19:01;;;;;;;0.60;0.37;;;;;;;11.27;81.58;100747.03;5065086;28;20240;-84
2021/10/15 11:21:28;;;;;;;0.90;0.70;;;;;;;11.27;81.50;100744.38;5069052;28;20654;-85
2021/10/15 11:24:14;;;;;;;1.27;0.70;;;;;;;11.32;81.52;100752.91;5069628;28;20201;-84
2021/10/15 11:26:41;;;;;;;0.47;0.47;;;;;;;11.32;81.47;100752.91;5070633;28;20202;-84
2021/10/15 11:29:09;;;;;;;3.67;0.53;;;;;;;11.31;81.35;100752.03;5070485;28;20231;-85
2021/10/15 11:31:37;;;;;;;0.63;0.43;;;;;;;11.32;81.36;100760.91;5071859;28;20208;-82
2021/10/15 11:34:11;;;;;;;0.27;0.20;;;;;;;11.31;81.24;100757.38;5077168;28;20255;-83
2021/10/15 11:36:37;;;;;;;1.53;0.40;;;;;;;11.31;81.28;100768.03;5070718;28;20676;-83
2021/10/15 11:39:07;;;;;;;1.07;0.40;;;;;;;11.29;81.23;100772.59;5071403;28;20228;-84